createdAt,value
2023-07-25T00:02:10.913Z,7.90
2023-07-25T00:04:38.607Z,8.43
2023-07-25T00:07:06.635Z,8.10
2023-07-25T00:09:34.418Z,8.80
2023-07-25T00:12:02.657Z,8.18
2023-07-25T00:14:31.133Z,8.45
2023-07-25T00:16:58.828Z,9.48
2023-07-25T00:19:27.661Z,8.48
2023-07-25T00:21:55.326Z,9.07
2023-07-25T00:24:23.685Z,9.23
2023-07-25T00:26:51.436Z,9.07
2023-07-25T00:29:19.562Z,9.25
2023-07-25T00:31:50.715Z,9.50
2023-07-25T00:34:18.894Z,10.05
2023-07-25T00:36:46.611Z,10.02
2023-07-25T00:39:14.257Z,10.35
2023-07-25T00:41:42.644Z,9.55
2023-07-25T00:44:10.578Z,9.70
2023-07-25T00:46:38.655Z,9.43
2023-07-25T00:49:06.489Z,9.43
2023-07-25T00:51:34.413Z,9.38
2023-07-25T00:54:02.830Z,9.88
2023-07-25T00:56:30.533Z,8.52
2023-07-25T00:58:58.241Z,9.02
2023-07-25T01:01:29.080Z,8.27
2023-07-25T01:03:57.665Z,8.48
2023-07-25T01:06:25.284Z,8.93
2023-07-25T01:08:54.676Z,7.32
2023-07-25T01:11:23.270Z,7.78
2023-07-25T01:13:51.783Z,7.88
2023-07-25T01:16:27.627Z,7.07
2023-07-25T01:18:55.421Z,7.90
2023-07-25T01:21:23.259Z,7.85
2023-07-25T01:23:52.090Z,7.40
2023-07-25T01:26:19.803Z,7.60
2023-07-25T01:28:50.827Z,7.32
2023-07-25T01:31:19.704Z,7.18
2023-07-25T01:33:47.669Z,6.78
2023-07-25T01:36:15.208Z,7.10
2023-07-25T01:38:42.716Z,7.53
2023-07-25T01:41:11.577Z,7.65
2023-07-25T01:43:39.194Z,7.15
2023-07-25T01:46:08.775Z,6.95
2023-07-25T01:48:41.787Z,7.07
2023-07-25T01:51:09.928Z,7.00
2023-07-25T01:53:38.646Z,6.72
2023-07-25T01:56:06.333Z,7.03
2023-07-25T01:58:34.012Z,7.10
2023-07-25T02:01:02.103Z,6.97
2023-07-25T02:03:31.949Z,7.13
2023-07-25T02:06:01.055Z,7.72
2023-07-25T02:08:28.912Z,7.22
2023-07-25T02:10:56.672Z,7.18
2023-07-25T02:13:24.742Z,6.90
2023-07-25T02:15:52.466Z,6.75
2023-07-25T02:18:21.740Z,7.32
2023-07-25T02:20:50.804Z,7.10
2023-07-25T02:23:18.548Z,7.82
2023-07-25T02:25:47.554Z,6.80
2023-07-25T02:28:15.186Z,6.97
2023-07-25T02:30:43.844Z,7.30
2023-07-25T02:33:19.250Z,6.40
2023-07-25T02:35:48.708Z,6.78
2023-07-25T02:38:17.194Z,6.70
2023-07-25T02:40:47.185Z,7.30
2023-07-25T02:43:15.857Z,6.88
2023-07-25T02:45:43.820Z,6.38
2023-07-25T02:48:13.016Z,7.18
2023-07-25T02:50:40.533Z,6.13
2023-07-25T02:53:08.126Z,6.28
2023-07-25T02:55:35.957Z,6.50
2023-07-25T02:58:03.420Z,6.22
2023-07-25T03:00:31.239Z,6.68
2023-07-25T03:02:58.925Z,6.75
2023-07-25T03:05:28.834Z,6.40
2023-07-25T03:08:00.469Z,6.30
2023-07-25T03:10:28.445Z,7.63
2023-07-25T03:12:55.823Z,6.25
2023-07-25T03:15:23.574Z,5.50
2023-07-25T03:17:51.466Z,6.50
2023-07-25T03:20:19.012Z,6.32
2023-07-25T03:22:46.745Z,5.40
2023-07-25T03:25:14.342Z,5.70
2023-07-25T03:27:42.781Z,5.35
2023-07-25T03:30:10.568Z,5.43
2023-07-25T03:32:38.509Z,5.45
2023-07-25T03:35:07.482Z,5.30
2023-07-25T03:37:35.641Z,5.70
2023-07-25T03:40:03.422Z,5.30
2023-07-25T03:42:34.016Z,5.25
2023-07-25T03:45:01.853Z,5.28
2023-07-25T03:47:29.568Z,5.18
2023-07-25T03:49:57.199Z,5.30
2023-07-25T03:52:24.761Z,5.00
2023-07-25T03:54:52.554Z,5.32
2023-07-25T03:57:20.390Z,4.15
2023-07-25T03:59:48.768Z,4.90
2023-07-25T04:02:16.487Z,4.82
2023-07-25T04:04:44.776Z,4.70
2023-07-25T04:07:13.995Z,4.88
2023-07-25T04:09:41.685Z,5.40
2023-07-25T04:12:09.379Z,5.32
2023-07-25T04:14:36.783Z,5.70
2023-07-25T04:17:04.486Z,5.93
2023-07-25T04:19:33.862Z,6.43
2023-07-25T04:22:01.569Z,6.82
2023-07-25T04:24:29.507Z,6.68
2023-07-25T04:26:57.090Z,6.35
2023-07-25T04:29:24.833Z,5.65
2023-07-25T04:31:53.626Z,6.50
2023-07-25T04:34:21.556Z,6.45
2023-07-25T04:36:50.297Z,6.50
2023-07-25T04:39:18.655Z,6.22
2023-07-25T04:41:47.322Z,6.78
2023-07-25T04:44:14.946Z,6.63
2023-07-25T04:46:42.831Z,6.70
2023-07-25T04:49:12.755Z,6.60
2023-07-25T04:51:41.132Z,7.07
2023-07-25T04:54:09.181Z,6.53
2023-07-25T04:56:36.800Z,6.72
2023-07-25T04:59:04.239Z,7.07
2023-07-25T05:01:32.371Z,7.15
2023-07-25T05:04:00.948Z,7.15
2023-07-25T05:06:28.773Z,7.97
2023-07-25T05:08:56.254Z,6.93
2023-07-25T05:11:23.766Z,8.27
2023-07-25T05:13:51.561Z,7.25
2023-07-25T05:16:20.679Z,8.00
2023-07-25T05:18:49.069Z,9.15
2023-07-25T05:21:16.742Z,8.43
2023-07-25T05:23:44.483Z,7.78
2023-07-25T05:26:12.275Z,8.30
2023-07-25T05:28:39.923Z,6.97
2023-07-25T05:31:07.658Z,7.32
2023-07-25T05:33:36.052Z,7.65
2023-07-25T05:36:06.650Z,7.97
2023-07-25T05:38:34.520Z,8.60
2023-07-25T05:41:03.691Z,8.27
2023-07-25T05:43:32.956Z,8.32
2023-07-25T05:46:01.234Z,7.13
2023-07-25T05:48:28.997Z,7.90
2023-07-25T05:50:57.283Z,7.20
2023-07-25T05:53:25.976Z,8.02
2023-07-25T05:55:53.689Z,7.22
2023-07-25T05:58:21.238Z,7.32
2023-07-25T06:00:49.386Z,7.85
2023-07-25T06:03:20.469Z,7.07
2023-07-25T06:05:48.512Z,6.88
2023-07-25T06:08:15.956Z,7.70
2023-07-25T06:10:43.750Z,6.50
2023-07-25T06:13:13.566Z,7.22
2023-07-25T06:15:41.544Z,6.85
2023-07-25T06:18:09.334Z,7.28
2023-07-25T06:20:39.705Z,7.30
2023-07-25T06:23:30.440Z,7.20
2023-07-25T06:25:59.204Z,6.63
2023-07-25T06:28:27.058Z,6.40
2023-07-25T06:30:54.835Z,6.85
2023-07-25T06:33:22.387Z,6.97
2023-07-25T06:35:50.687Z,7.10
2023-07-25T06:38:25.526Z,6.78
2023-07-25T06:40:53.206Z,5.38
2023-07-25T06:43:20.745Z,5.53
2023-07-25T06:45:50.354Z,5.75
2023-07-25T06:48:21.676Z,5.63
2023-07-25T06:50:51.004Z,5.38
2023-07-25T06:53:19.173Z,5.32
2023-07-25T06:55:47.753Z,6.07
2023-07-25T06:58:20.355Z,5.93
2023-07-25T07:00:54.582Z,5.95
2023-07-25T07:03:22.364Z,5.57
2023-07-25T07:05:56.768Z,6.05
2023-07-25T07:08:24.769Z,6.30
2023-07-25T07:10:55.902Z,5.68
2023-07-25T07:13:24.202Z,5.82
2023-07-25T07:15:52.296Z,6.18
2023-07-25T07:18:19.768Z,5.75
2023-07-25T07:20:51.384Z,5.32
2023-07-25T07:23:19.348Z,5.63
2023-07-25T07:25:52.799Z,5.47
2023-07-25T07:28:21.056Z,5.93
2023-07-25T07:30:54.793Z,6.25
2023-07-25T07:33:22.423Z,5.93
2023-07-25T07:35:49.948Z,6.10
2023-07-25T07:38:17.564Z,5.88
2023-07-25T07:40:45.263Z,5.10
2023-07-25T07:43:15.381Z,5.60
2023-07-25T07:48:24.625Z,5.38
2023-07-25T07:50:52.063Z,5.93
2023-07-25T07:53:20.797Z,6.32
2023-07-25T07:55:48.217Z,5.32
2023-07-25T07:58:15.836Z,5.07
2023-07-25T08:00:43.286Z,5.10
2023-07-25T08:03:11.066Z,6.07
2023-07-25T08:05:39.981Z,4.97
2023-07-25T08:08:07.978Z,5.10
2023-07-25T08:10:35.602Z,5.57
2023-07-25T08:13:05.652Z,5.50
2023-07-25T08:15:33.237Z,5.13
2023-07-25T08:18:00.794Z,5.47
2023-07-25T08:20:28.540Z,5.28
2023-07-25T08:22:56.218Z,5.38
2023-07-25T08:25:23.628Z,5.47
2023-07-25T08:27:51.567Z,4.95
2023-07-25T08:30:19.153Z,5.32
2023-07-25T08:32:46.910Z,5.60
2023-07-25T08:35:14.865Z,7.43
2023-07-25T08:37:46.337Z,7.13
2023-07-25T08:40:14.267Z,8.07
2023-07-25T08:42:43.748Z,5.97
2023-07-25T08:45:11.784Z,5.72
2023-07-25T08:47:42.945Z,4.97
2023-07-25T08:50:18.790Z,6.25
2023-07-25T08:52:53.698Z,4.80
2023-07-25T08:55:22.677Z,5.13
2023-07-25T08:57:52.642Z,5.60
2023-07-25T09:00:22.172Z,5.35
2023-07-25T09:02:53.948Z,5.65
2023-07-25T09:05:22.446Z,5.93
2023-07-25T09:07:50.235Z,5.07
2023-07-25T09:10:25.382Z,5.53
2023-07-25T09:13:25.139Z,5.25
2023-07-25T09:15:53.352Z,5.70
2023-07-25T09:18:22.619Z,5.05
2023-07-25T09:20:54.091Z,4.88
2023-07-25T09:23:24.753Z,5.10
2023-07-25T09:26:06.132Z,4.90
2023-07-25T09:28:51.419Z,5.38
2023-07-25T09:31:20.223Z,5.30
2023-07-25T09:33:52.687Z,4.50
2023-07-25T09:36:24.735Z,5.40
2023-07-25T09:39:00.499Z,4.80
2023-07-25T09:41:34.501Z,5.18
2023-07-25T09:44:09.343Z,5.03
2023-07-25T09:46:39.613Z,5.15
2023-07-25T09:49:07.238Z,5.03
2023-07-25T09:51:38.403Z,5.03
2023-07-25T09:54:07.284Z,5.30
2023-07-25T09:56:37.194Z,4.65
2023-07-25T09:59:07.788Z,4.82
2023-07-25T10:01:40.084Z,4.90
2023-07-25T10:04:08.251Z,5.00
2023-07-25T10:06:37.764Z,5.28
2023-07-25T10:09:38.190Z,5.13
2023-07-25T10:12:08.078Z,5.18
2023-07-25T10:14:43.203Z,5.38
2023-07-25T10:17:11.153Z,5.20
2023-07-25T10:19:52.881Z,5.25
2023-07-25T10:22:37.821Z,5.50
2023-07-25T10:25:12.845Z,5.00
2023-07-25T10:27:42.308Z,5.72
2023-07-25T10:30:23.314Z,4.95
2023-07-25T10:32:53.539Z,4.88
2023-07-25T10:35:43.281Z,5.15
2023-07-25T10:38:11.978Z,5.38
2023-07-25T10:40:59.862Z,4.88
2023-07-25T10:43:53.501Z,5.43
2023-07-25T10:46:29.953Z,5.30
2023-07-25T10:49:01.907Z,4.82
2023-07-25T10:51:56.427Z,4.57
2023-07-25T10:54:25.584Z,5.30
2023-07-25T10:57:15.949Z,5.43
2023-07-25T11:00:05.921Z,4.70
2023-07-25T11:02:40.219Z,4.07
2023-07-25T11:05:20.070Z,5.13
2023-07-25T11:07:55.023Z,4.63
2023-07-25T11:10:23.817Z,4.30
2023-07-25T11:13:04.053Z,4.70
2023-07-25T11:15:46.388Z,4.65
2023-07-25T11:18:18.019Z,5.68
2023-07-25T11:20:45.793Z,4.95
2023-07-25T11:23:18.040Z,4.78
2023-07-25T11:25:54.560Z,4.68
2023-07-25T11:28:22.957Z,4.40
2023-07-25T11:30:53.068Z,4.43
2023-07-25T11:33:22.565Z,4.63
2023-07-25T11:35:56.477Z,4.50
2023-07-25T11:38:24.874Z,4.78
2023-07-25T11:40:53.499Z,4.32
2023-07-25T11:43:21.216Z,4.45
2023-07-25T11:45:48.967Z,4.40
2023-07-25T11:48:19.859Z,4.22
2023-07-25T11:50:50.504Z,4.05
2023-07-25T11:53:21.963Z,4.05
2023-07-25T11:55:52.430Z,4.15
2023-07-25T11:58:21.285Z,4.32
2023-07-25T12:00:53.104Z,4.50
2023-07-25T12:03:24.611Z,4.10
2023-07-25T12:05:59.678Z,3.85
2023-07-25T12:08:33.639Z,3.75
2023-07-25T12:11:04.017Z,4.50
2023-07-25T12:13:32.151Z,4.45
2023-07-25T12:16:01.867Z,4.10
2023-07-25T12:18:31.337Z,4.50
2023-07-25T12:21:00.513Z,4.15
2023-07-25T12:23:33.401Z,4.30
2023-07-25T12:26:02.269Z,4.15
2023-07-25T12:28:43.602Z,4.25
2023-07-25T12:31:11.727Z,4.35
2023-07-25T12:33:40.008Z,4.38
2023-07-25T12:36:07.991Z,4.68
2023-07-25T12:38:35.783Z,5.68
2023-07-25T12:41:10.702Z,9.70
2023-07-25T12:43:45.423Z,6.32
2023-07-25T12:46:13.268Z,7.43
2023-07-25T12:48:44.824Z,6.38
2023-07-25T12:51:12.451Z,5.88
2023-07-25T12:53:49.529Z,5.65
2023-07-25T12:56:17.657Z,4.93
2023-07-25T12:58:45.439Z,5.55
2023-07-25T13:01:23.795Z,5.13
2023-07-25T13:03:52.057Z,4.88
2023-07-25T13:06:23.509Z,4.85
2023-07-25T13:08:52.702Z,5.22
2023-07-25T13:11:21.809Z,4.93
2023-07-25T13:13:53.193Z,5.55
2023-07-25T13:16:21.935Z,4.82
2023-07-25T13:18:49.971Z,5.18
2023-07-25T13:21:24.632Z,4.93
2023-07-25T13:23:57.657Z,4.75
2023-07-25T13:26:25.766Z,5.80
2023-07-25T13:29:02.491Z,5.60
2023-07-25T13:31:41.864Z,4.68
2023-07-25T13:34:09.478Z,5.40
2023-07-25T13:36:38.738Z,4.57
2023-07-25T13:39:08.706Z,5.55
2023-07-25T13:41:36.395Z,5.50
2023-07-25T13:44:09.826Z,5.93
2023-07-25T13:46:37.565Z,5.35
2023-07-25T13:49:05.264Z,5.35
2023-07-25T13:51:34.273Z,5.38
2023-07-25T13:54:01.987Z,5.55
2023-07-25T13:56:29.984Z,5.68
2023-07-25T13:58:57.593Z,5.43
2023-07-25T14:01:28.016Z,5.28
2023-07-25T14:03:58.628Z,5.68
2023-07-25T14:06:27.520Z,5.78
2023-07-25T14:09:02.068Z,5.47
2023-07-25T14:11:46.298Z,5.25
2023-07-25T14:14:14.070Z,5.60
2023-07-25T14:16:42.871Z,5.85
2023-07-25T14:19:13.842Z,5.75
2023-07-25T14:21:42.387Z,6.38
2023-07-25T14:24:10.092Z,5.90
2023-07-25T14:26:38.015Z,6.28
2023-07-25T14:29:05.994Z,6.03
2023-07-25T14:31:34.421Z,6.75
2023-07-25T14:34:02.234Z,6.57
2023-07-25T14:36:30.129Z,7.20
2023-07-25T14:38:58.242Z,6.90
2023-07-25T14:41:26.154Z,6.45
2023-07-25T14:44:00.452Z,6.70
2023-07-25T14:46:28.154Z,6.95
2023-07-25T14:48:56.575Z,6.68
2023-07-25T14:51:24.176Z,6.57
2023-07-25T14:53:51.962Z,6.65
2023-07-25T14:56:19.894Z,6.47
2023-07-25T14:58:47.560Z,6.82
2023-07-25T15:01:15.246Z,6.97
2023-07-25T15:03:43.070Z,6.55
2023-07-25T15:06:11.817Z,7.63
2023-07-25T15:08:39.530Z,7.13
2023-07-25T15:11:07.162Z,7.15
2023-07-25T15:13:35.667Z,7.10
2023-07-25T15:16:03.487Z,6.72
2023-07-25T15:18:31.785Z,7.70
2023-07-25T15:21:00.826Z,7.32
2023-07-25T15:23:28.598Z,6.85
2023-07-25T15:25:56.862Z,7.03
2023-07-25T15:28:25.718Z,7.25
2023-07-25T15:30:57.961Z,7.32
2023-07-25T15:33:26.976Z,7.47
2023-07-25T15:35:54.884Z,7.28
2023-07-25T15:38:23.032Z,7.10
2023-07-25T15:41:36.171Z,6.97
2023-07-25T15:44:04.055Z,7.28
2023-07-25T15:46:31.891Z,7.65
2023-07-25T15:48:59.832Z,7.28
2023-07-25T15:51:28.778Z,6.93
2023-07-25T15:53:56.751Z,7.28
2023-07-25T15:56:24.495Z,7.65
2023-07-25T15:58:52.506Z,7.00
2023-07-25T16:01:23.758Z,6.30
2023-07-25T16:03:57.903Z,7.00
2023-07-25T16:06:28.309Z,6.90
2023-07-25T16:08:56.723Z,7.13
2023-07-25T16:11:24.746Z,6.72
2023-07-25T16:13:55.127Z,7.82
2023-07-25T16:16:24.641Z,7.63
2023-07-25T16:18:52.899Z,7.55
2023-07-25T16:21:35.264Z,7.18
2023-07-25T16:24:03.211Z,7.63
2023-07-25T16:26:31.821Z,7.13
2023-07-25T16:28:59.911Z,7.65
2023-07-25T16:33:58.184Z,7.20
2023-07-25T16:36:26.508Z,7.95
2023-07-25T16:38:54.741Z,7.85
2023-07-25T16:41:22.751Z,6.70
2023-07-25T16:43:50.456Z,8.75
2023-07-25T16:46:19.145Z,7.50
2023-07-25T16:48:47.928Z,7.28
2023-07-25T16:51:15.761Z,7.20
2023-07-25T16:53:43.792Z,7.13
2023-07-25T16:56:11.438Z,7.95
2023-07-25T16:58:39.230Z,6.93
2023-07-25T17:01:09.060Z,7.40
2023-07-25T17:03:37.079Z,7.30
2023-07-25T17:06:13.112Z,7.15
2023-07-25T17:09:13.498Z,7.32
2023-07-25T17:11:43.717Z,6.63
2023-07-25T17:14:43.966Z,6.78
2023-07-25T17:17:13.871Z,7.43
2023-07-25T17:19:43.773Z,7.07
2023-07-25T17:22:17.971Z,6.97
2023-07-25T17:24:45.846Z,6.90
2023-07-25T17:27:13.561Z,6.95
2023-07-25T17:29:44.291Z,6.88
2023-07-25T17:32:12.927Z,6.38
2023-07-25T17:34:40.958Z,6.93
2023-07-25T17:37:08.871Z,7.07
2023-07-25T17:39:36.563Z,7.20
2023-07-25T17:42:06.044Z,6.70
2023-07-25T17:44:33.929Z,6.47
2023-07-25T17:47:03.041Z,6.75
2023-07-25T17:49:31.352Z,6.85
2023-07-25T17:52:00.464Z,7.55
2023-07-25T17:54:35.060Z,6.88
2023-07-25T17:57:03.094Z,7.32
2023-07-25T17:59:30.817Z,6.50
2023-07-25T18:02:01.833Z,6.45
2023-07-25T18:04:29.894Z,6.80
2023-07-25T18:07:03.992Z,6.63
2023-07-25T18:09:39.522Z,6.70
2023-07-25T18:12:10.939Z,6.57
2023-07-25T18:14:46.320Z,5.63
2023-07-25T18:21:49.278Z,5.78
2023-07-25T18:24:20.098Z,5.95
2023-07-25T18:26:54.811Z,5.95
2023-07-25T18:29:24.686Z,6.63
2023-07-25T18:31:52.395Z,5.97
2023-07-25T18:34:21.038Z,6.20
2023-07-25T18:36:48.876Z,6.03
2023-07-25T18:39:16.545Z,6.03
2023-07-25T18:41:44.646Z,5.90
2023-07-25T18:44:12.453Z,6.00
2023-07-25T18:46:40.270Z,7.53
2023-07-25T18:49:10.041Z,5.22
2023-07-25T18:51:39.061Z,5.25
2023-07-25T18:54:10.011Z,5.53
2023-07-25T18:56:37.655Z,5.68
2023-07-25T18:59:05.567Z,5.90
2023-07-25T19:01:34.803Z,5.47
2023-07-25T19:04:02.510Z,5.47
2023-07-25T19:06:30.717Z,5.93
2023-07-25T19:08:59.849Z,5.55
2023-07-25T19:11:39.036Z,5.35
2023-07-25T19:14:07.275Z,6.35
2023-07-25T19:16:35.292Z,5.15
2023-07-25T19:19:03.637Z,5.70
2023-07-25T19:21:31.995Z,5.88
2023-07-25T19:23:59.729Z,5.90
2023-07-25T19:26:28.939Z,5.32
2023-07-25T19:29:01.595Z,5.53
2023-07-25T19:31:31.118Z,5.32
2023-07-25T19:33:58.841Z,6.07
2023-07-25T19:36:26.498Z,6.60
2023-07-25T19:38:55.051Z,5.43
2023-07-25T19:41:23.284Z,5.70
2023-07-25T19:43:51.553Z,5.82
2023-07-25T19:46:20.175Z,6.38
2023-07-25T19:48:48.022Z,5.32
2023-07-25T19:51:16.158Z,5.07
2023-07-25T19:53:44.304Z,5.22
2023-07-25T19:56:17.191Z,5.35
2023-07-25T19:58:45.658Z,5.63
2023-07-25T20:01:14.123Z,5.30
2023-07-25T20:03:42.275Z,5.00
2023-07-25T20:06:21.288Z,5.22
2023-07-25T20:08:48.959Z,4.63
2023-07-25T20:11:16.757Z,4.60
2023-07-25T20:13:48.122Z,4.57
2023-07-25T20:16:16.336Z,5.07
2023-07-25T20:18:45.566Z,4.18
2023-07-25T20:21:15.619Z,4.45
2023-07-25T20:23:45.361Z,4.57
2023-07-25T20:26:14.785Z,5.07
2023-07-25T20:28:42.421Z,4.63
2023-07-25T20:31:13.980Z,4.50
2023-07-25T20:33:49.135Z,4.55
2023-07-25T20:38:48.036Z,4.63
2023-07-25T20:41:18.918Z,4.38
2023-07-25T20:43:50.374Z,5.32
2023-07-25T20:46:25.294Z,4.03
2023-07-25T20:48:55.288Z,3.90
2023-07-25T20:51:23.358Z,4.03
2023-07-25T20:53:53.252Z,4.07
2023-07-25T20:56:21.020Z,4.32
2023-07-25T20:59:29.830Z,4.13
2023-07-25T21:02:30.540Z,3.70
2023-07-25T21:05:00.407Z,4.13
2023-07-25T21:07:29.743Z,4.20
2023-07-25T21:09:58.413Z,4.25
2023-07-25T21:12:26.591Z,4.28
2023-07-25T21:14:54.601Z,3.85
2023-07-25T21:17:31.380Z,3.80
2023-07-25T21:19:59.309Z,5.07
2023-07-25T21:22:30.322Z,4.15
2023-07-25T21:24:59.480Z,3.80
2023-07-25T21:28:03.848Z,4.47
2023-07-25T21:32:09.551Z,4.07
2023-07-25T21:34:45.235Z,4.03
2023-07-25T21:37:18.492Z,4.18
2023-07-25T21:39:46.268Z,3.83
2023-07-25T21:42:19.364Z,3.97
2023-07-25T21:44:53.330Z,4.10
2023-07-25T21:47:21.232Z,4.40
2023-07-25T21:50:24.820Z,4.07
2023-07-25T21:52:59.144Z,4.07
2023-07-25T21:55:26.957Z,4.20
2023-07-25T21:57:54.507Z,4.50
2023-07-25T22:00:24.260Z,4.38
2023-07-25T22:02:55.401Z,4.00
2023-07-25T22:05:24.608Z,3.83
2023-07-25T22:07:54.880Z,4.13
2023-07-25T22:10:23.484Z,3.90
2023-07-25T22:12:53.506Z,4.05
2023-07-25T22:15:27.302Z,4.53
2023-07-25T22:17:56.379Z,4.47
2023-07-25T22:20:32.036Z,4.80
2023-07-25T22:23:07.448Z,4.40
2023-07-25T22:25:37.312Z,4.50
2023-07-25T22:28:05.233Z,4.45
2023-07-25T22:30:39.354Z,4.43
2023-07-25T22:33:07.206Z,4.13
2023-07-25T22:35:35.855Z,3.90
2023-07-25T22:38:05.272Z,4.47
2023-07-25T22:40:34.315Z,4.43
2023-07-25T22:43:02.108Z,4.28
2023-07-25T22:46:40.918Z,5.40
2023-07-25T22:49:09.086Z,5.45
2023-07-25T22:51:37.065Z,5.88
2023-07-25T22:54:12.331Z,5.82
2023-07-25T22:56:40.025Z,5.57
2023-07-25T22:59:07.759Z,5.97
2023-07-25T23:01:37.007Z,6.40
2023-07-25T23:04:04.787Z,5.97
2023-07-25T23:06:32.956Z,5.57
2023-07-25T23:09:01.208Z,6.05
2023-07-25T23:11:28.956Z,6.55
2023-07-25T23:13:59.601Z,6.72
2023-07-25T23:16:29.353Z,6.63
2023-07-25T23:18:58.808Z,5.97
2023-07-25T23:21:27.938Z,6.38
2023-07-25T23:23:58.319Z,6.22
2023-07-25T23:26:27.310Z,6.10
2023-07-25T23:28:56.683Z,6.35
2023-07-25T23:31:25.509Z,5.95
2023-07-25T23:33:53.352Z,6.38
2023-07-25T23:36:22.344Z,5.78
2023-07-25T23:38:50.048Z,6.05
2023-07-25T23:41:19.336Z,6.25
2023-07-25T23:43:47.408Z,5.68
2023-07-25T23:46:16.329Z,6.32
2023-07-25T23:48:44.358Z,6.50
2023-07-25T23:51:12.036Z,6.25
2023-07-25T23:54:44.805Z,5.50
2023-07-25T23:57:12.732Z,5.88
2023-07-25T23:59:47.469Z,5.47
